Time;durP1;ratioP1;P1;durP2;ratioP2;P2;SDS_P1;SDS_P2;PMS_P1;PMS_P2;Temp;Humidity;BMP_temperature;BMP_pressure;BME280_temperature;BME280_humidity;BME280_pressure;Samples;Min_cycle;Max_cycle;Signal;HPM_P1;HPM_P2
2021/10/15 00:00:40;;;;;;;8.82;4.07;;;12.80;76.60;;;;;;5073335;28;20035;-38
2021/10/15 00:03:05;;;;;;;10.30;4.82;;;12.80;76.70;;;;;;5055556;28;20021;-37
2021/10/15 00:05:31;;;;;;;14.05;4.72;;;12.80;76.40;;;;;;5055013;28;20102;-37
2021/10/15 00:07:57;;;;;;;8.82;3.55;;;12.90;76.30;;;;;;5072960;28;20384;-37
2021/10/15 00:10:26;;;;;;;6.95;3.85;;;12.80;77.00;;;;;;5073223;28;20027;-38
2021/10/15 00:12:51;;;;;;;11.35;5.03;;;12.80;76.90;;;;;;5073612;28;20028;-37
2021/10/15 00:15:18;;;;;;;11.00;4.45;;;12.70;76.80;;;;;;5072839;28;20421;-37
2021/10/15 00:17:44;;;;;;;14.25;5.18;;;12.80;76.40;;;;;;5073146;28;20388;-38
2021/10/15 00:20:10;;;;;;;10.10;4.70;;;12.80;76.20;;;;;;5073150;28;20020;-38
2021/10/15 00:22:36;;;;;;;13.38;5.10;;;12.80;76.30;;;;;;5073390;28;20103;-37
2021/10/15 00:25:02;;;;;;;13.30;5.53;;;12.80;76.50;;;;;;5073048;28;20017;-37
2021/10/15 00:27:28;;;;;;;8.57;4.00;;;12.80;76.10;;;;;;5054596;28;20029;-36
2021/10/15 00:29:54;;;;;;;12.82;5.28;;;12.80;76.10;;;;;;5072576;28;20027;-37
2021/10/15 00:32:19;;;;;;;7.85;4.35;;;12.80;76.20;;;;;;5073201;28;20456;-37
2021/10/15 00:34:45;;;;;;;12.15;4.60;;;12.80;76.10;;;;;;5072664;28;20071;-38
2021/10/15 00:37:11;;;;;;;9.63;5.15;;;12.80;75.90;;;;;;5072605;28;20024;-38
2021/10/15 00:39:36;;;;;;;10.70;4.05;;;12.80;76.30;;;;;;5072643;28;20096;-38
2021/10/15 00:42:02;;;;;;;11.95;5.47;;;12.80;76.40;;;;;;5072738;28;20033;-37
2021/10/15 00:44:28;;;;;;;12.13;5.65;;;12.80;76.20;;;;;;5072561;28;20531;-37
2021/10/15 00:46:54;;;;;;;13.18;5.15;;;12.80;76.10;;;;;;5072669;28;20048;-37
2021/10/15 00:49:20;;;;;;;14.35;5.82;;;12.70;76.20;;;;;;5072575;28;20096;-37
2021/10/15 00:51:46;;;;;;;7.55;4.45;;;12.70;76.20;;;;;;5072774;28;20051;-37
2021/10/15 00:54:14;;;;;;;14.25;6.22;;;12.60;76.50;;;;;;5072516;28;20074;-37
2021/10/15 00:56:42;;;;;;;14.68;5.03;;;12.60;76.40;;;;;;5054316;28;20448;-37
2021/10/15 00:59:07;;;;;;;13.95;5.78;;;12.50;76.60;;;;;;5072370;28;20037;-37
2021/10/15 01:01:33;;;;;;;10.00;6.13;;;12.40;77.10;;;;;;5072266;28;20029;-37
2021/10/15 01:04:02;;;;;;;9.93;4.43;;;12.40;77.00;;;;;;5072139;28;20047;-37
2021/10/15 01:06:30;;;;;;;7.05;4.00;;;12.40;76.60;;;;;;5054177;28;20052;-37
2021/10/15 01:08:57;;;;;;;9.65;4.40;;;12.40;76.90;;;;;;5076241;28;20029;-37
2021/10/15 01:11:43;;;;;;;14.20;5.13;;;12.30;77.00;;;;;;5076102;28;20127;-37
2021/10/15 01:14:10;;;;;;;11.65;4.82;;;12.30;76.70;;;;;;5075995;28;20040;-37
2021/10/15 01:16:35;;;;;;;9.05;5.78;;;12.30;76.60;;;;;;5076322;28;20112;-37
2021/10/15 01:19:02;;;;;;;11.38;4.25;;;12.30;76.80;;;;;;5075680;28;20060;-37
2021/10/15 01:21:29;;;;;;;10.68;4.40;;;12.30;76.80;;;;;;5075589;28;20163;-37
2021/10/15 01:23:56;;;;;;;12.65;4.53;;;12.30;76.70;;;;;;5075820;28;20055;-38
2021/10/15 01:26:22;;;;;;;12.20;5.32;;;12.30;76.60;;;;;;5075535;28;20036;-38
2021/10/15 01:28:48;;;;;;;14.48;6.55;;;12.30;76.50;;;;;;5075673;28;20024;-36
2021/10/15 01:31:14;;;;;;;10.98;4.65;;;12.30;76.40;;;;;;5075550;28;20020;-37
2021/10/15 01:33:40;;;;;;;9.98;4.55;;;12.40;75.90;;;;;;5075511;28;20112;-37
2021/10/15 01:36:05;;;;;;;10.18;4.68;;;12.30;75.70;;;;;;5075712;28;20111;-37
2021/10/15 01:38:31;;;;;;;10.05;3.83;;;12.30;75.90;;;;;;5075805;28;20020;-38
2021/10/15 01:40:57;;;;;;;15.05;5.35;;;12.30;76.00;;;;;;5075366;28;20463;-37
2021/10/15 01:43:25;;;;;;;10.90;5.65;;;12.30;75.70;;;;;;5075464;28;20074;-38
2021/10/15 01:45:51;;;;;;;12.07;4.90;;;12.30;75.80;;;;;;5075376;28;20097;-37
2021/10/15 01:48:17;;;;;;;10.85;4.65;;;12.30;76.10;;;;;;5075642;28;20115;-37
2021/10/15 01:50:43;;;;;;;9.60;4.18;;;12.30;76.20;;;;;;5075568;28;20494;-41
2021/10/15 01:53:09;;;;;;;8.07;4.55;;;12.30;76.00;;;;;;5057994;28;20461;-37
2021/10/15 01:55:34;;;;;;;10.30;3.85;;;12.30;75.90;;;;;;5075227;28;20028;-37
2021/10/15 01:58:00;;;;;;;10.07;4.60;;;12.30;76.00;;;;;;5075175;28;20498;-37
2021/10/15 02:00:26;;;;;;;16.90;5.03;;;12.30;75.90;;;;;;5075390;28;20107;-37
2021/10/15 02:02:51;;;;;;;7.43;4.13;;;12.30;75.70;;;;;;5075185;28;20025;-38
2021/10/15 02:05:18;;;;;;;7.65;4.88;;;12.30;75.60;;;;;;5074887;28;20148;-38
2021/10/15 02:07:45;;;;;;;13.55;4.97;;;12.30;75.30;;;;;;5075313;28;20044;-37
2021/10/15 02:10:12;;;;;;;12.13;4.45;;;12.30;75.70;;;;;;5075256;28;20020;-37
2021/10/15 02:12:39;;;;;;;12.63;5.72;;;12.20;75.50;;;;;;5056950;28;20032;-37
2021/10/15 02:15:06;;;;;;;8.73;4.40;;;12.30;75.50;;;;;;5074797;28;20020;-36
2021/10/15 02:17:32;;;;;;;8.73;4.50;;;12.20;75.70;;;;;;5056247;28;20475;-37
2021/10/15 02:19:58;;;;;;;13.15;5.45;;;12.20;75.80;;;;;;5074667;28;20164;-37
2021/10/15 02:22:24;;;;;;;14.35;4.22;;;12.20;76.30;;;;;;5056816;28;20028;-37
2021/10/15 02:24:49;;;;;;;6.63;4.43;;;12.30;76.00;;;;;;5074719;28;20070;-37
2021/10/15 02:27:15;;;;;;;13.70;6.75;;;12.20;75.80;;;;;;5074634;28;20032;-37
2021/10/15 02:29:41;;;;;;;19.20;6.80;;;12.20;75.90;;;;;;5074535;28;20088;-37
2021/10/15 02:32:07;;;;;;;8.95;4.20;;;12.20;75.60;;;;;;5074536;28;20039;-38
2021/10/15 02:34:33;;;;;;;9.43;4.78;;;12.20;75.90;;;;;;5074443;28;20029;-37
2021/10/15 02:36:59;;;;;;;7.63;4.35;;;12.10;76.30;;;;;;5056258;28;20035;-37
2021/10/15 02:39:24;;;;;;;6.55;3.92;;;12.00;76.50;;;;;;5074376;28;20021;-37
2021/10/15 02:41:50;;;;;;;11.98;4.53;;;12.00;76.40;;;;;;5074802;28;20052;-37
2021/10/15 02:44:16;;;;;;;10.68;4.90;;;12.00;76.30;;;;;;5056295;28;20158;-37
2021/10/15 02:46:42;;;;;;;11.65;5.25;;;11.90;76.50;;;;;;5074230;28;20598;-37
2021/10/15 02:49:08;;;;;;;7.93;4.30;;;12.00;76.10;;;;;;5074091;28;20028;-37
2021/10/15 02:51:34;;;;;;;18.73;5.60;;;11.90;76.50;;;;;;5074204;28;20032;-37
2021/10/15 02:54:02;;;;;;;10.90;5.25;;;12.00;76.40;;;;;;5056169;28;20439;-37
2021/10/15 02:56:27;;;;;;;10.82;5.10;;;12.00;76.40;;;;;;5074893;28;20341;-38
2021/10/15 02:58:53;;;;;;;10.25;4.80;;;12.00;76.30;;;;;;5074285;28;20031;-37
2021/10/15 03:01:19;;;;;;;14.63;4.97;;;12.00;76.60;;;;;;5074302;28;20144;-37
2021/10/15 03:03:45;;;;;;;11.88;4.50;;;11.90;76.70;;;;;;5074178;28;20052;-37
2021/10/15 03:06:10;;;;;;;10.13;4.60;;;11.90;76.90;;;;;;5073810;28;20044;-37
2021/10/15 03:08:36;;;;;;;11.27;5.38;;;11.80;77.20;;;;;;5073707;28;20052;-37
2021/10/15 03:11:02;;;;;;;15.07;5.75;;;11.80;77.20;;;;;;5073746;28;20434;-37
2021/10/15 03:13:28;;;;;;;11.10;5.22;;;11.80;77.50;;;;;;5073978;28;20081;-37
2021/10/15 03:15:54;;;;;;;11.65;5.75;;;11.80;77.70;;;;;;5073722;28;20103;-37
2021/10/15 03:18:20;;;;;;;17.63;5.45;;;11.80;77.80;;;;;;5073515;28;20017;-37
2021/10/15 03:20:46;;;;;;;7.45;5.30;;;11.80;77.80;;;;;;5073537;28;20020;-37
2021/10/15 03:23:12;;;;;;;14.80;6.38;;;11.70;77.90;;;;;;5073639;28;20345;-36
2021/10/15 03:25:38;;;;;;;12.60;5.63;;;11.70;78.30;;;;;;5073471;28;20384;-38
2021/10/15 03:28:05;;;;;;;10.23;5.15;;;11.70;78.60;;;;;;5055498;28;20031;-37
2021/10/15 03:30:31;;;;;;;15.63;6.25;;;11.70;78.20;;;;;;5072801;28;20021;-38
2021/10/15 03:32:56;;;;;;;10.43;5.25;;;11.80;78.10;;;;;;5055311;28;20443;-37
2021/10/15 03:35:23;;;;;;;12.60;4.85;;;11.70;78.40;;;;;;5073184;28;20051;-37
2021/10/15 03:37:49;;;;;;;10.13;4.82;;;11.70;78.60;;;;;;5073558;28;20090;-37
2021/10/15 03:40:14;;;;;;;12.43;5.43;;;11.80;78.50;;;;;;5073473;28;20021;-37
2021/10/15 03:42:40;;;;;;;13.18;5.38;;;11.70;78.40;;;;;;5073164;28;20024;-37
2021/10/15 03:45:07;;;;;;;15.02;5.70;;;11.70;78.40;;;;;;5073438;28;20028;-37
2021/10/15 03:47:34;;;;;;;11.75;6.03;;;11.70;78.90;;;;;;5073404;28;20476;-37
2021/10/15 03:50:00;;;;;;;23.90;4.75;;;11.70;78.60;;;;;;5055190;28;20047;-38
2021/10/15 03:52:26;;;;;;;10.40;5.28;;;11.70;78.60;;;;;;5073030;28;20029;-36
2021/10/15 03:54:51;;;;;;;9.55;5.15;;;11.60;78.90;;;;;;5073231;28;20115;-37
2021/10/15 03:57:17;;;;;;;11.73;5.32;;;11.70;78.80;;;;;;5073201;28;20405;-37
2021/10/15 03:59:42;;;;;;;11.95;5.78;;;11.60;79.10;;;;;;5072967;28;20587;-37
2021/10/15 04:02:08;;;;;;;14.80;6.20;;;11.70;78.70;;;;;;5072535;28;20035;-37
2021/10/15 04:04:34;;;;;;;17.60;5.00;;;11.70;78.90;;;;;;5072434;28;20493;-36
2021/10/15 04:06:59;;;;;;;10.63;4.80;;;11.60;79.00;;;;;;5073153;28;20036;-37
2021/10/15 04:09:25;;;;;;;13.55;4.63;;;11.80;79.00;;;;;;5054256;28;20029;-37
2021/10/15 04:11:51;;;;;;;8.68;5.47;;;11.70;79.10;;;;;;5072359;28;20108;-36
2021/10/15 04:14:16;;;;;;;17.95;7.25;;;11.70;79.40;;;;;;5073485;28;20361;-37
2021/10/15 04:16:42;;;;;;;15.20;7.32;;;11.70;79.40;;;;;;5072155;28;20089;-38
2021/10/15 04:19:08;;;;;;;12.65;5.57;;;11.70;79.50;;;;;;5072435;28;20029;-37
2021/10/15 04:21:34;;;;;;;11.43;5.28;;;11.70;79.30;;;;;;5072157;28;20059;-38
2021/10/15 04:23:59;;;;;;;10.15;6.32;;;11.80;79.30;;;;;;5072133;28;20344;-37
2021/10/15 04:26:25;;;;;;;21.17;7.03;;;11.60;79.80;;;;;;5072326;28;20090;-37
2021/10/15 04:28:51;;;;;;;15.38;6.35;;;11.60;79.80;;;;;;5072679;28;20035;-37
2021/10/15 04:31:17;;;;;;;11.43;6.15;;;11.60;80.10;;;;;;5072925;28;20112;-38
2021/10/15 04:33:43;;;;;;;10.30;4.95;;;11.50;80.40;;;;;;5073122;28;20052;-37
2021/10/15 04:36:08;;;;;;;16.63;5.95;;;11.50;80.20;;;;;;5072932;28;20177;-37
2021/10/15 04:38:35;;;;;;;16.42;5.90;;;11.60;80.50;;;;;;5072823;28;20078;-37
2021/10/15 04:41:00;;;;;;;14.15;5.80;;;11.50;80.40;;;;;;5073947;28;20032;-38
2021/10/15 04:43:26;;;;;;;14.38;6.78;;;11.50;80.60;;;;;;5076950;28;20028;-38
2021/10/15 04:45:51;;;;;;;14.88;4.80;;;11.50;80.60;;;;;;5077054;28;20027;-38
2021/10/15 04:48:17;;;;;;;11.57;5.55;;;11.40;80.60;;;;;;5076645;28;20028;-38
2021/10/15 04:50:43;;;;;;;12.50;5.63;;;11.30;81.20;;;;;;5076846;28;20032;-38
2021/10/15 04:53:09;;;;;;;15.70;6.25;;;11.30;81.30;;;;;;5076916;28;20468;-38
2021/10/15 04:55:36;;;;;;;16.83;6.40;;;11.40;81.10;;;;;;5076481;28;20512;-38
2021/10/15 04:58:02;;;;;;;13.88;7.15;;;11.30;81.10;;;;;;5076763;28;20021;-37
2021/10/15 05:00:29;;;;;;;13.80;6.25;;;11.30;81.20;;;;;;5058224;28;20025;-37
2021/10/15 05:02:55;;;;;;;15.65;6.40;;;11.30;81.40;;;;;;5075688;28;20029;-40
2021/10/15 05:05:23;;;;;;;15.60;6.63;;;11.30;81.80;;;;;;5078997;28;20047;-46
2021/10/15 05:07:49;;;;;;;11.95;5.22;;;11.30;81.80;;;;;;5076277;28;20388;-47
2021/10/15 05:10:15;;;;;;;15.32;6.40;;;11.30;81.80;;;;;;5076696;28;20020;-47
2021/10/15 05:12:42;;;;;;;11.10;6.07;;;11.30;81.90;;;;;;5076507;28;20035;-47
2021/10/15 05:15:11;;;;;;;11.93;6.57;;;11.20;81.90;;;;;;5076853;28;20021;-48
2021/10/15 05:17:38;;;;;;;18.17;6.55;;;11.20;82.10;;;;;;5076608;28;20048;-46
2021/10/15 05:20:05;;;;;;;11.40;5.82;;;11.20;82.10;;;;;;5076325;28;20028;-47
2021/10/15 05:22:31;;;;;;;12.23;6.10;;;11.20;82.00;;;;;;5075849;28;20048;-46
2021/10/15 05:24:56;;;;;;;15.85;6.10;;;11.20;82.20;;;;;;5075834;28;20506;-47
2021/10/15 05:27:22;;;;;;;9.70;5.47;;;11.30;82.10;;;;;;5075542;28;20025;-47
2021/10/15 05:29:48;;;;;;;4.53;3.13;;;11.30;82.40;;;;;;5075603;28;20201;-47
2021/10/15 05:32:18;;;;;;;13.93;6.00;;;11.20;82.30;;;;;;5075698;28;20032;-50
2021/10/15 05:34:46;;;;;;;15.75;6.43;;;11.20;82.40;;;;;;5057830;28;20046;-47
2021/10/15 05:37:12;;;;;;;9.48;5.82;;;11.30;82.20;;;;;;5075674;28;20036;-51
2021/10/15 05:39:38;;;;;;;13.45;6.32;;;11.30;82.20;;;;;;5075648;28;20024;-46
2021/10/15 05:42:05;;;;;;;19.02;8.15;;;11.30;82.20;;;;;;5058730;28;20040;-47
2021/10/15 05:44:31;;;;;;;11.77;6.07;;;11.30;82.20;;;;;;5075366;28;20112;-47
2021/10/15 05:46:59;;;;;;;12.52;6.40;;;11.30;82.10;;;;;;5075766;28;20047;-48
2021/10/15 05:49:25;;;;;;;14.05;7.53;;;11.30;82.50;;;;;;5075883;28;20033;-47
2021/10/15 05:51:51;;;;;;;14.10;5.82;;;11.30;82.60;;;;;;5075872;28;20020;-47
2021/10/15 05:54:26;;;;;;;12.15;6.10;;;11.30;82.70;;;;;;5075080;28;20165;-47
2021/10/15 05:59:50;;;;;;;10.57;5.85;;;11.40;82.30;;;;;;5042047;28;20033;-48
2021/10/15 06:02:15;;;;;;;13.63;6.10;;;11.40;82.50;;;;;;5075265;28;20047;-47
2021/10/15 06:15:29;;;;;;;12.05;6.10;;;11.50;82.90;;;;;;5075546;28;20067;-48
2021/10/15 06:17:56;;;;;;;14.82;6.65;;;11.60;82.90;;;;;;5075672;28;20024;-49
2021/10/15 06:20:22;;;;;;;14.32;6.30;;;11.50;83.00;;;;;;5075244;28;20021;-47
2021/10/15 06:22:48;;;;;;;19.25;7.72;;;11.50;83.00;;;;;;5056820;28;20021;-47
2021/10/15 06:25:14;;;;;;;13.80;6.60;;;11.60;82.80;;;;;;5075273;28;20031;-52
2021/10/15 06:27:40;;;;;;;21.17;7.70;;;11.60;83.00;;;;;;5074483;28;20025;-51
2021/10/15 06:30:06;;;;;;;19.58;7.25;;;11.60;82.90;;;;;;5074514;28;20020;-49
2021/10/15 06:32:32;;;;;;;13.48;7.00;;;11.50;83.10;;;;;;5074542;28;20096;-48
2021/10/15 06:34:58;;;;;;;12.70;6.95;;;11.60;83.30;;;;;;5074588;28;20159;-47
2021/10/15 06:37:24;;;;;;;15.75;6.97;;;11.60;83.30;;;;;;5074510;28;20029;-50
2021/10/15 06:39:51;;;;;;;15.40;5.88;;;11.70;83.10;;;;;;5074681;28;20072;-45
2021/10/15 06:42:17;;;;;;;13.10;6.40;;;11.70;83.30;;;;;;5074317;28;20020;-46
2021/10/15 06:44:42;;;;;;;16.55;7.57;;;11.70;83.20;;;;;;5074103;28;20380;-45
2021/10/15 06:47:08;;;;;;;18.08;7.95;;;11.80;83.50;;;;;;5055949;28;20039;-46
2021/10/15 06:49:34;;;;;;;22.10;11.30;;;11.80;83.00;;;;;;5074163;28;20025;-47
2021/10/15 06:52:00;;;;;;;16.48;7.78;;;11.80;82.90;;;;;;5074064;28;20024;-50
2021/10/15 06:54:25;;;;;;;15.68;7.53;;;11.80;82.90;;;;;;5074080;28;20025;-48
2021/10/15 06:56:51;;;;;;;15.65;7.78;;;11.90;82.60;;;;;;5073832;28;20103;-48
2021/10/15 06:59:16;;;;;;;16.00;7.90;;;11.80;82.80;;;;;;5073983;28;20017;-49
2021/10/15 07:01:42;;;;;;;14.10;7.05;;;11.90;82.90;;;;;;5073921;28;20028;-48
2021/10/15 07:04:08;;;;;;;15.85;7.07;;;12.00;82.90;;;;;;5073676;28;20032;-47
2021/10/15 07:06:35;;;;;;;15.75;7.38;;;11.80;82.90;;;;;;5073553;28;20416;-47
2021/10/15 07:09:00;;;;;;;21.15;9.23;;;11.80;83.20;;;;;;5073526;28;20020;-46
2021/10/15 07:11:26;;;;;;;11.52;7.43;;;11.80;83.00;;;;;;5073623;28;20388;-47
2021/10/15 07:13:52;;;;;;;19.27;8.90;;;11.90;82.60;;;;;;5073923;28;20034;-47
2021/10/15 07:16:17;;;;;;;17.23;7.70;;;11.90;82.70;;;;;;5055180;28;20024;-48
2021/10/15 07:18:43;;;;;;;13.00;7.00;;;11.90;82.80;;;;;;5073404;28;20025;-50
2021/10/15 07:21:10;;;;;;;17.60;7.55;;;11.90;83.00;;;;;;5073452;28;20070;-46
2021/10/15 07:23:36;;;;;;;17.77;9.57;;;11.90;82.80;;;;;;5072988;28;20017;-49
2021/10/15 07:26:07;;;;;;;10.48;7.13;;;11.90;83.20;;;;;;5073802;28;20036;-43
2021/10/15 07:28:33;;;;;;;20.83;8.70;;;11.80;83.30;;;;;;5080081;28;20175;-48
2021/10/15 07:30:59;;;;;;;14.40;8.13;;;11.90;83.20;;;;;;5073306;28;20038;-48
2021/10/15 07:33:25;;;;;;;11.73;6.85;;;11.90;83.30;;;;;;5073741;28;20075;-46
2021/10/15 07:35:51;;;;;;;16.83;7.95;;;11.90;83.20;;;;;;5073056;28;20032;-48
2021/10/15 07:38:17;;;;;;;11.20;6.97;;;12.00;83.00;;;;;;5074593;28;20433;-46
2021/10/15 07:40:42;;;;;;;17.15;8.23;;;12.10;82.90;;;;;;5055089;28;20508;-49
2021/10/15 07:43:08;;;;;;;17.73;7.85;;;12.10;83.10;;;;;;5073309;28;20095;-50
2021/10/15 07:45:34;;;;;;;13.88;6.97;;;12.10;83.10;;;;;;5073373;28;20066;-49
2021/10/15 07:48:00;;;;;;;16.42;8.43;;;12.20;82.90;;;;;;5072657;28;20048;-48
2021/10/15 07:50:27;;;;;;;14.90;9.18;;;12.20;82.90;;;;;;5073239;28;20021;-47
2021/10/15 07:52:52;;;;;;;15.35;7.25;;;12.20;82.90;;;;;;5072803;28;20106;-47
2021/10/15 07:55:18;;;;;;;19.85;8.30;;;12.30;82.70;;;;;;5073064;28;20300;-47
2021/10/15 07:57:44;;;;;;;14.43;7.55;;;12.30;82.60;;;;;;5072371;28;20192;-49
2021/10/15 08:00:11;;;;;;;12.80;7.00;;;12.30;82.40;;;;;;5054944;28;20031;-50
2021/10/15 08:02:37;;;;;;;18.92;7.35;;;12.40;82.10;;;;;;5055810;28;20428;-48
2021/10/15 08:05:04;;;;;;;17.50;7.00;;;12.30;82.50;;;;;;5074108;28;20074;-47
2021/10/15 08:07:30;;;;;;;16.75;7.65;;;12.30;82.70;;;;;;5074188;28;20023;-48
2021/10/15 08:09:55;;;;;;;16.17;9.15;;;12.40;82.60;;;;;;5073360;28;20024;-48
2021/10/15 08:12:21;;;;;;;10.05;6.57;;;12.50;82.40;;;;;;5055835;28;20028;-48
2021/10/15 08:14:47;;;;;;;14.68;7.07;;;12.40;82.50;;;;;;5055019;28;20048;-48
2021/10/15 08:17:13;;;;;;;10.48;6.43;;;12.40;82.80;;;;;;5072170;28;20021;-50
2021/10/15 08:19:39;;;;;;;15.27;7.40;;;12.40;82.80;;;;;;5072850;28;20036;-46
2021/10/15 08:22:06;;;;;;;17.13;7.13;;;12.40;83.00;;;;;;5072054;28;20074;-48
2021/10/15 08:24:32;;;;;;;17.67;8.02;;;12.40;83.10;;;;;;5071903;28;20501;-47
2021/10/15 08:26:58;;;;;;;26.98;8.82;;;12.40;83.30;;;;;;5072147;28;20037;-47
2021/10/15 08:29:24;;;;;;;22.23;10.20;;;12.40;83.60;;;;;;5072555;28;20123;-48
2021/10/15 08:31:53;;;;;;;22.42;8.68;;;12.30;84.50;;;;;;5054124;28;20399;-46
2021/10/15 08:34:20;;;;;;;21.20;11.00;;;12.20;86.10;;;;;;5054682;28;20024;-47
2021/10/15 08:36:46;;;;;;;19.73;9.73;;;12.10;87.10;;;;;;5071756;28;20092;-51
2021/10/15 08:39:17;;;;;;;24.10;10.98;;;11.90;88.00;;;;;;5072267;28;20056;-46
2021/10/15 08:41:42;;;;;;;22.88;12.15;;;11.90;88.90;;;;;;5072612;28;20028;-47
2021/10/15 08:44:08;;;;;;;29.88;13.65;;;11.80;89.70;;;;;;5071971;28;20052;-48
2021/10/15 08:46:35;;;;;;;19.73;12.70;;;11.60;90.50;;;;;;5072496;28;20078;-48
2021/10/15 08:49:01;;;;;;;22.70;13.70;;;11.60;91.00;;;;;;5072069;28;20029;-51
2021/10/15 08:51:27;;;;;;;28.15;16.00;;;11.60;91.20;;;;;;5072309;28;20379;-50
2021/10/15 08:53:55;;;;;;;34.55;16.58;;;11.60;91.30;;;;;;5071745;28;20504;-47
2021/10/15 08:56:22;;;;;;;25.63;15.13;;;11.70;91.40;;;;;;5072253;28;20082;-48
2021/10/15 08:58:55;;;;;;;28.50;15.40;;;11.80;91.40;;;;;;5072213;28;20101;-49
2021/10/15 09:01:20;;;;;;;31.65;16.30;;;11.90;91.40;;;;;;5072410;28;20067;-48
2021/10/15 09:03:46;;;;;;;33.60;15.73;;;11.90;91.30;;;;;;5072024;28;20044;-47
2021/10/15 09:06:12;;;;;;;20.70;13.75;;;11.90;91.20;;;;;;5071769;28;20060;-49
2021/10/15 09:08:55;;;;;;;32.67;15.40;;;11.90;91.20;;;;;;5072236;28;20028;-49
2021/10/15 09:11:26;;;;;;;25.50;14.73;;;12.20;91.40;;;;;;5072187;28;20024;-50
2021/10/15 09:14:10;;;;;;;20.05;12.60;;;12.20;90.80;;;;;;5071776;28;20501;-50
2021/10/15 09:16:54;;;;;;;21.02;12.90;;;12.30;90.20;;;;;;5071449;28;20028;-50
2021/10/15 09:19:41;;;;;;;19.77;11.48;;;12.30;90.00;;;;;;5072151;28;20103;-49
2021/10/15 09:22:09;;;;;;;23.38;12.30;;;12.30;90.40;;;;;;5072132;28;20028;-49
2021/10/15 09:24:44;;;;;;;15.55;11.88;;;12.30;90.50;;;;;;5071598;28;20024;-47
2021/10/15 09:27:24;;;;;;;18.15;11.35;;;12.30;90.60;;;;;;5071640;28;20028;-50
2021/10/15 09:29:55;;;;;;;13.93;10.27;;;12.50;90.20;;;;;;5075174;28;20406;-48
2021/10/15 09:32:24;;;;;;;19.23;9.60;;;12.40;89.60;;;;;;5075428;28;20476;-48
2021/10/15 09:34:51;;;;;;;11.23;7.82;;;12.50;89.20;;;;;;5075012;28;20059;-51
2021/10/15 09:37:25;;;;;;;14.80;8.27;;;12.50;89.00;;;;;;5075207;28;20081;-49
2021/10/15 09:40:23;;;;;;;16.88;8.10;;;12.70;88.40;;;;;;5074926;28;20021;-49
2021/10/15 09:42:51;;;;;;;16.10;9.38;;;12.70;88.50;;;;;;5064007;28;20052;-50
2021/10/15 09:45:18;;;;;;;10.10;7.15;;;12.60;88.50;;;;;;5075536;28;20025;-48
2021/10/15 09:47:50;;;;;;;10.95;7.20;;;12.80;87.90;;;;;;5074893;28;20065;-48
2021/10/15 09:50:18;;;;;;;7.20;4.43;;;12.90;87.70;;;;;;5075079;28;20079;-47
2021/10/15 09:52:44;;;;;;;6.15;3.90;;;12.90;86.40;;;;;;5074744;28;20101;-48
2021/10/15 09:55:20;;;;;;;7.88;5.55;;;13.10;85.60;;;;;;5074799;28;20112;-50
2021/10/15 09:57:54;;;;;;;7.22;4.07;;;13.20;84.80;;;;;;5074885;28;20024;-50
2021/10/15 10:00:30;;;;;;;5.32;3.00;;;13.20;84.30;;;;;;5074703;28;20025;-47
2021/10/15 10:02:56;;;;;;;7.18;3.03;;;13.30;83.40;;;;;;5074822;28;20021;-47
2021/10/15 10:05:22;;;;;;;3.55;2.83;;;13.50;83.30;;;;;;5056590;28;20044;-48
2021/10/15 10:07:50;;;;;;;4.40;2.08;;;13.80;82.10;;;;;;5074712;28;20025;-51
2021/10/15 10:10:19;;;;;;;3.92;1.73;;;13.50;81.60;;;;;;5056520;28;20032;-51
2021/10/15 10:12:46;;;;;;;3.13;1.88;;;13.40;80.90;;;;;;5075087;28;20028;-50
2021/10/15 10:15:17;;;;;;;4.55;2.13;;;13.30;80.60;;;;;;5057427;28;20024;-51
2021/10/15 10:18:01;;;;;;;5.00;1.52;;;13.20;81.40;;;;;;5074944;28;20029;-48
2021/10/15 10:20:29;;;;;;;3.00;1.95;;;13.00;81.30;;;;;;5074549;28;20024;-46
2021/10/15 10:23:28;;;;;;;2.85;1.15;;;13.10;81.90;;;;;;5056670;28;20028;-48
2021/10/15 10:25:59;;;;;;;2.42;1.05;;;13.00;81.80;;;;;;5005293;28;20045;-51
2021/10/15 10:28:26;;;;;;;2.17;0.60;;;12.90;81.20;;;;;;5056423;28;20039;-49
2021/10/15 10:31:05;;;;;;;1.58;1.00;;;12.80;81.90;;;;;;5075228;28;20448;-48
2021/10/15 10:33:50;;;;;;;2.88;0.80;;;13.10;81.30;;;;;;5074625;28;20484;-48
2021/10/15 10:36:16;;;;;;;1.88;0.80;;;13.30;80.70;;;;;;5074611;28;20024;-48
2021/10/15 10:38:41;;;;;;;1.63;0.85;;;13.30;79.70;;;;;;5074106;28;20044;-48
2021/10/15 10:41:07;;;;;;;2.70;1.15;;;13.50;79.60;;;;;;5074161;28;20155;-48
2021/10/15 10:43:52;;;;;;;1.95;1.10;;;13.60;79.60;;;;;;5074460;28;20052;-51
2021/10/15 10:46:23;;;;;;;4.43;1.17;;;13.70;78.80;;;;;;5073395;28;20033;-48
2021/10/15 10:48:49;;;;;;;1.92;1.13;;;13.70;80.40;;;;;;5073751;28;20029;-48
2021/10/15 10:51:22;;;;;;;5.22;1.20;;;13.80;80.20;;;;;;5074022;28;20051;-48
2021/10/15 10:54:06;;;;;;;3.75;0.80;;;14.00;78.40;;;;;;5074304;28;20028;-48
2021/10/15 10:56:44;;;;;;;2.47;1.02;;;13.80;78.30;;;;;;5074025;28;20028;-49
2021/10/15 10:59:19;;;;;;;3.40;1.45;;;13.60;78.10;;;;;;5074348;28;20027;-48
2021/10/15 11:02:03;;;;;;;2.22;0.80;;;13.60;78.70;;;;;;5055526;28;20419;-50
2021/10/15 11:04:33;;;;;;;5.40;1.35;;;14.10;77.30;;;;;;5073929;28;20059;-48
2021/10/15 11:07:07;;;;;;;;;;;14.30;75.80;;;;;;5057204;28;20113;-49
2021/10/15 11:09:39;;;;;;;2.08;1.00;;;14.50;75.30;;;;;;5055703;28;19959;-52
2021/10/15 11:12:06;;;;;;;3.92;1.27;;;14.50;75.40;;;;;;5054431;28;20068;-48
2021/10/15 11:15:06;;;;;;;2.97;1.48;;;14.50;73.90;;;;;;5055733;28;20046;-47
2021/10/15 11:17:41;;;;;;;3.80;1.27;;;14.50;75.40;;;;;;5073649;28;20151;-51
2021/10/15 11:20:17;;;;;;;4.75;1.35;;;14.30;74.30;;;;;;5073048;28;20099;-52
2021/10/15 11:23:10;;;;;;;6.40;1.48;;;14.30;75.60;;;;;;5055743;28;20480;-49
2021/10/15 11:25:40;;;;;;;4.43;1.83;;;14.60;75.10;;;;;;5074217;28;20012;-48
2021/10/15 11:28:08;;;;;;;3.67;1.00;;;14.30;75.30;;;;;;5055477;28;20032;-48
2021/10/15 11:30:39;;;;;;;5.72;1.25;;;14.50;74.00;;;;;;5073459;28;20031;-49
2021/10/15 11:33:09;;;;;;;3.10;1.45;;;14.10;74.80;;;;;;5073721;28;20037;-53
2021/10/15 11:35:36;;;;;;;6.18;1.92;;;13.80;75.90;;;;;;5073336;28;20033;-54
2021/10/15 11:38:18;;;;;;;4.55;1.60;;;13.80;76.10;;;;;;5055045;28;20028;-49
2021/10/15 11:40:47;;;;;;;6.88;1.52;;;14.00;75.00;;;;;;5072941;28;20173;-49
2021/10/15 11:43:28;;;;;;;5.30;1.58;;;14.20;75.40;;;;;;5073098;28;20023;-48
2021/10/15 11:45:59;;;;;;;4.60;1.27;;;14.10;72.70;;;;;;5056990;28;20029;-50
2021/10/15 11:48:48;;;;;;;7.03;1.52;;;14.10;73.20;;;;;;5054780;28;20044;-49
2021/10/15 11:51:23;;;;;;;7.00;1.80;;;14.10;73.00;;;;;;5073037;28;20416;-48
2021/10/15 11:54:17;;;;;;;10.77;1.40;;;14.10;73.20;;;;;;5073068;28;20353;-48
2021/10/15 11:56:43;;;;;;;4.93;1.02;;;13.80;74.30;;;;;;5070527;28;20059;-48
2021/10/15 11:59:09;;;;;;;5.43;1.40;;;13.80;74.30;;;;;;5072442;28;20028;-51
2021/10/15 12:01:36;;;;;;;5.57;1.77;;;14.00;71.30;;;;;;5072588;28;20382;-49
2021/10/15 12:04:08;;;;;;;9.93;1.20;;;14.10;71.90;;;;;;5073064;28;20051;-48
2021/10/15 12:06:48;;;;;;;13.57;2.15;;;14.40;69.70;;;;;;5072484;28;20550;-48
2021/10/15 12:09:19;;;;;;;2.77;1.30;;;15.10;67.30;;;;;;5072502;28;20127;-48
2021/10/15 12:11:55;;;;;;;2.65;1.20;;;15.30;65.40;;;;;;5072988;28;20032;-49
2021/10/15 12:14:28;;;;;;;4.38;1.20;;;15.10;65.30;;;;;;5072433;28;20028;-49
2021/10/15 12:17:00;;;;;;;4.28;1.95;;;15.30;66.20;;;;;;5072468;28;20031;-50
2021/10/15 12:19:31;;;;;;;3.92;1.95;;;15.80;63.60;;;;;;5072689;28;20093;-47
2021/10/15 12:21:56;;;;;;;9.82;1.85;;;15.80;63.70;;;;;;5072391;28;20032;-50
2021/10/15 12:24:27;;;;;;;7.65;1.40;;;15.60;63.60;;;;;;5072923;28;20024;-48
2021/10/15 12:27:07;;;;;;;5.55;2.50;;;15.50;65.40;;;;;;5072839;28;20338;-47
2021/10/15 12:29:35;;;;;;;3.92;1.20;;;15.60;64.20;;;;;;5054345;28;20020;-52
2021/10/15 12:32:28;;;;;;;4.85;1.58;;;15.30;63.60;;;;;;5072447;28;20102;-48
2021/10/15 12:35:14;;;;;;;3.85;1.08;;;15.20;65.40;;;;;;5069385;28;20040;-52
2021/10/15 12:37:51;;;;;;;6.65;1.50;;;15.40;65.10;;;;;;5072205;28;20024;-47
2021/10/15 12:40:45;;;;;;;3.30;1.40;;;15.30;63.70;;;;;;5072247;28;20100;-51
2021/10/15 12:43:16;;;;;;;2.13;1.08;;;15.30;63.70;;;;;;5072280;28;20096;-47
2021/10/15 12:45:48;;;;;;;10.85;1.42;;;15.10;64.30;;;;;;5072406;28;20108;-49
2021/10/15 12:48:19;;;;;;;4.60;1.55;;;14.90;64.40;;;;;;5072330;28;20032;-46
2021/10/15 12:51:09;;;;;;;5.13;1.33;;;15.00;64.50;;;;;;5071997;28;20079;-49
2021/10/15 12:53:36;;;;;;;7.35;2.55;;;15.20;63.20;;;;;;5072397;28;20071;-49
2021/10/15 12:56:02;;;;;;;6.20;1.77;;;15.70;61.80;;;;;;5072179;28;20039;-46
2021/10/15 12:58:31;;;;;;;6.57;2.33;;;15.90;62.00;;;;;;5071797;28;20017;-47
2021/10/15 13:01:00;;;;;;;5.53;1.40;;;16.10;62.10;;;;;;5072319;28;20021;-47